createdAt,value
2019-05-05T00:02:18.309Z,5.67
2019-05-05T00:04:49.604Z,5.42
2019-05-05T00:07:25.357Z,5.44
2019-05-05T00:09:55.404Z,5.51
2019-05-05T00:12:34.323Z,5.54
2019-05-05T00:15:14.504Z,5.51
2019-05-05T00:17:45.099Z,5.42
2019-05-05T00:20:15.393Z,5.33
2019-05-05T00:22:45.494Z,5.32
2019-05-05T00:25:15.579Z,5.36
2019-05-05T00:27:45.355Z,5.28
2019-05-05T00:30:15.455Z,5.29
2019-05-05T00:32:45.194Z,5.51
2019-05-05T00:35:14.949Z,5.55
2019-05-05T00:37:45.070Z,5.45
2019-05-05T00:40:15.707Z,5.43
2019-05-05T00:42:46.962Z,5.41
2019-05-05T00:45:19.126Z,5.30
2019-05-05T00:47:54.465Z,5.23
2019-05-05T00:50:25.219Z,5.18
2019-05-05T00:52:55.233Z,5.19
2019-05-05T00:55:24.963Z,5.24
2019-05-05T00:57:54.937Z,5.22
2019-05-05T01:00:27.734Z,5.20
2019-05-05T01:02:58.033Z,5.25
2019-05-05T01:05:34.968Z,5.28
2019-05-05T01:08:07.497Z,5.15
2019-05-05T01:10:37.582Z,4.90
2019-05-05T01:13:10.261Z,4.96
2019-05-05T01:15:40.052Z,5.07
2019-05-05T01:18:09.875Z,5.05
2019-05-05T01:20:39.464Z,5.20
2019-05-05T01:23:09.350Z,5.34
2019-05-05T01:25:38.983Z,5.09
2019-05-05T01:28:09.429Z,5.09
2019-05-05T01:30:40.706Z,4.97
2019-05-05T01:33:10.169Z,5.00
2019-05-05T01:35:39.991Z,4.90
2019-05-05T01:38:27.189Z,4.80
2019-05-05T01:41:00.540Z,5.05
2019-05-05T01:43:30.546Z,5.19
2019-05-05T01:46:00.474Z,5.26
2019-05-05T01:48:30.124Z,5.11
2019-05-05T01:50:59.837Z,5.26
2019-05-05T01:53:31.745Z,5.16
2019-05-05T01:56:02.234Z,5.19
2019-05-05T01:58:32.193Z,5.07
2019-05-05T02:01:01.820Z,4.96
2019-05-05T02:03:31.489Z,4.76
2019-05-05T02:06:01.226Z,4.66
2019-05-05T02:08:30.820Z,4.63
2019-05-05T02:11:05.384Z,4.69
2019-05-05T02:13:35.275Z,4.59
2019-05-05T02:16:05.219Z,4.57
2019-05-05T02:18:34.823Z,4.62
2019-05-05T02:21:08.768Z,4.52
2019-05-05T02:23:38.769Z,4.36
2019-05-05T02:26:09.381Z,4.11
2019-05-05T02:28:45.210Z,4.26
2019-05-05T02:31:16.898Z,4.23
2019-05-05T02:33:46.610Z,4.11
2019-05-05T02:36:16.297Z,3.93
2019-05-05T02:38:46.568Z,4.03
2019-05-05T02:41:17.738Z,4.28
2019-05-05T02:43:48.164Z,4.21
2019-05-05T02:46:21.094Z,3.89
2019-05-05T02:48:55.059Z,3.94
2019-05-05T02:51:26.794Z,3.87
2019-05-05T02:53:59.571Z,3.83
2019-05-05T02:56:45.959Z,4.00
2019-05-05T02:59:20.012Z,4.23
2019-05-05T03:01:53.864Z,4.22
2019-05-05T03:04:24.598Z,4.12
2019-05-05T03:06:56.949Z,4.20
2019-05-05T03:09:29.179Z,4.21
2019-05-05T03:12:02.161Z,4.08
2019-05-05T03:14:34.739Z,4.06
2019-05-05T03:17:10.102Z,4.03
2019-05-05T03:19:40.101Z,3.99
2019-05-05T03:22:09.933Z,4.05
2019-05-05T03:24:40.109Z,3.81
2019-05-05T03:27:10.482Z,3.95
2019-05-05T03:29:40.746Z,3.76
2019-05-05T03:32:11.873Z,3.78
2019-05-05T03:34:41.661Z,3.78
2019-05-05T03:37:11.551Z,3.68
2019-05-05T03:39:44.495Z,3.65
2019-05-05T03:42:16.134Z,3.70
2019-05-05T03:44:47.467Z,3.56
2019-05-05T03:47:18.403Z,3.47
2019-05-05T03:49:49.094Z,3.49
2019-05-05T03:52:18.914Z,3.51
2019-05-05T03:54:49.166Z,3.43
2019-05-05T03:57:18.827Z,3.39
2019-05-05T03:59:49.012Z,3.32
2019-05-05T04:02:18.503Z,3.47
2019-05-05T04:04:49.843Z,3.53
2019-05-05T04:07:20.036Z,3.53
2019-05-05T04:09:51.009Z,3.56
2019-05-05T04:12:20.763Z,3.70
2019-05-05T04:14:54.440Z,3.81
2019-05-05T04:17:33.554Z,3.80
2019-05-05T04:20:13.881Z,3.79
2019-05-05T04:22:43.591Z,3.65
2019-05-05T04:25:13.890Z,3.58
2019-05-05T04:28:04.516Z,3.51
2019-05-05T04:30:34.336Z,3.50
2019-05-05T04:33:04.584Z,3.56
2019-05-05T04:35:34.391Z,3.67
2019-05-05T04:38:04.722Z,3.86
2019-05-05T04:40:34.769Z,3.95
2019-05-05T04:43:04.424Z,4.05
2019-05-05T04:45:34.838Z,4.12
2019-05-05T04:48:06.246Z,4.04
2019-05-05T04:50:54.436Z,4.31
2019-05-05T04:53:25.957Z,4.30
2019-05-05T04:55:55.548Z,4.38
2019-05-05T04:58:25.178Z,4.44
2019-05-05T05:00:54.879Z,4.54
2019-05-05T05:03:32.108Z,4.77
2019-05-05T05:06:05.781Z,4.79
2019-05-05T05:08:35.653Z,4.78
2019-05-05T05:11:05.876Z,5.01
2019-05-05T05:13:37.577Z,5.21
2019-05-05T05:16:07.347Z,5.24
2019-05-05T05:18:37.029Z,5.26
2019-05-05T05:21:06.656Z,5.29
2019-05-05T05:23:36.383Z,5.50
2019-05-05T05:26:06.141Z,5.48
2019-05-05T05:28:35.772Z,5.44
2019-05-05T05:31:05.404Z,5.60
2019-05-05T05:33:35.871Z,5.55
2019-05-05T05:36:05.518Z,5.72
2019-05-05T05:38:35.197Z,5.95
2019-05-05T05:41:09.321Z,6.03
2019-05-05T05:43:40.539Z,6.32
2019-05-05T05:46:13.512Z,6.45
2019-05-05T05:48:47.752Z,6.29
2019-05-05T05:51:23.687Z,6.44
2019-05-05T05:53:54.413Z,6.51
2019-05-05T05:56:25.002Z,6.48
2019-05-05T05:58:54.914Z,6.43
2019-05-05T06:01:24.668Z,6.66
2019-05-05T06:03:54.694Z,6.71
2019-05-05T06:06:24.345Z,6.73
2019-05-05T06:08:54.593Z,7.15
2019-05-05T06:11:24.375Z,7.29
2019-05-05T06:13:54.481Z,7.37
2019-05-05T06:16:27.709Z,7.25
2019-05-05T06:18:57.362Z,7.58
2019-05-05T06:21:26.920Z,7.80
2019-05-05T06:23:57.652Z,7.83
2019-05-05T06:26:27.363Z,7.61
2019-05-05T06:28:57.032Z,7.68
2019-05-05T06:31:26.766Z,7.89
2019-05-05T06:33:58.732Z,7.82
2019-05-05T06:36:28.395Z,7.94
2019-05-05T06:38:59.435Z,8.01
2019-05-05T06:41:30.573Z,8.35
2019-05-05T06:44:03.738Z,8.62
2019-05-05T06:46:44.494Z,8.77
2019-05-05T06:49:14.113Z,8.59
2019-05-05T06:51:44.114Z,8.98
2019-05-05T06:54:14.430Z,8.92
2019-05-05T06:56:44.547Z,8.73
2019-05-05T06:59:14.400Z,9.30
2019-05-05T07:01:44.305Z,9.25
2019-05-05T07:04:14.019Z,9.26
2019-05-05T07:06:53.533Z,8.68
2019-05-05T07:09:16.133Z,9.05
2019-05-05T07:11:45.898Z,9.50
2019-05-05T07:14:15.758Z,10.02
2019-05-05T07:16:45.451Z,10.30
2019-05-05T07:19:15.125Z,10.32
2019-05-05T07:21:44.756Z,10.55
2019-05-05T07:24:14.655Z,10.89
2019-05-05T07:26:44.765Z,11.04
2019-05-05T07:29:17.821Z,11.27
2019-05-05T07:31:45.791Z,11.12
2019-05-05T07:34:17.199Z,11.36
2019-05-05T07:36:48.345Z,11.47
2019-05-05T07:39:17.988Z,11.57
2019-05-05T07:41:47.672Z,11.39
2019-05-05T07:44:28.446Z,11.71
2019-05-05T07:46:49.140Z,11.75
2019-05-05T07:49:18.678Z,11.94
2019-05-05T07:51:48.448Z,12.26
2019-05-05T07:54:18.041Z,11.80
2019-05-05T07:56:47.563Z,11.40
2019-05-05T07:59:17.576Z,11.72
2019-05-05T08:01:47.303Z,12.36
2019-05-05T08:04:16.839Z,12.83
2019-05-05T08:06:46.342Z,13.13
2019-05-05T08:09:21.727Z,13.27
2019-05-05T08:11:50.268Z,13.42
2019-05-05T08:14:19.775Z,13.62
2019-05-05T08:16:59.797Z,13.71
2019-05-05T08:19:34.702Z,13.78
2019-05-05T08:22:04.261Z,13.87
2019-05-05T08:24:54.406Z,13.84
2019-05-05T08:27:37.282Z,13.51
2019-05-05T08:30:10.337Z,12.80
2019-05-05T08:32:43.656Z,13.22
2019-05-05T08:35:14.766Z,13.33
2019-05-05T08:37:44.649Z,13.87
2019-05-05T08:40:14.855Z,14.43
2019-05-05T08:42:44.741Z,14.58
2019-05-05T08:45:14.728Z,14.89
2019-05-05T08:47:44.458Z,14.83
2019-05-05T08:50:14.194Z,15.04
2019-05-05T08:53:04.518Z,15.07
2019-05-05T08:55:34.808Z,15.01
2019-05-05T08:58:04.712Z,15.23
2019-05-05T09:00:35.638Z,15.46
2019-05-05T09:03:05.398Z,15.89
2019-05-05T09:05:35.361Z,16.07
2019-05-05T09:08:05.237Z,16.16
2019-05-05T09:10:34.960Z,16.34
2019-05-05T09:13:04.966Z,16.30
2019-05-05T09:15:37.496Z,16.29
2019-05-05T09:18:06.223Z,16.22
2019-05-05T09:20:35.852Z,16.39
2019-05-05T09:23:06.082Z,16.27
2019-05-05T09:25:37.467Z,16.51
2019-05-05T09:28:24.631Z,16.85
2019-05-05T09:30:54.401Z,17.06
2019-05-05T09:33:24.839Z,16.87
2019-05-05T09:35:54.669Z,16.57
2019-05-05T09:38:24.574Z,16.50
2019-05-05T09:40:54.423Z,16.53
2019-05-05T09:43:24.567Z,16.96
2019-05-05T09:45:54.719Z,17.01
2019-05-05T09:48:25.028Z,17.26
2019-05-05T09:50:54.668Z,17.48
2019-05-05T09:53:27.276Z,17.63
2019-05-05T09:55:55.626Z,17.75
2019-05-05T09:58:25.677Z,18.28
2019-05-05T10:00:56.734Z,18.56
2019-05-05T10:03:26.387Z,18.84
2019-05-05T10:05:56.034Z,18.55
2019-05-05T10:08:25.649Z,19.00
2019-05-05T10:10:55.289Z,19.45
2019-05-05T10:13:24.872Z,19.42
2019-05-05T10:15:54.997Z,19.42
2019-05-05T10:18:26.302Z,19.59
2019-05-05T10:20:57.701Z,19.32
2019-05-05T10:23:28.861Z,19.36
2019-05-05T10:26:01.221Z,19.68
2019-05-05T10:28:30.960Z,19.92
2019-05-05T10:31:00.584Z,20.24
2019-05-05T10:33:30.638Z,19.74
2019-05-05T10:36:01.134Z,18.69
2019-05-05T10:38:35.340Z,17.90
2019-05-05T10:41:04.953Z,17.63
2019-05-05T11:06:56.102Z,20.88
2019-05-05T11:09:25.817Z,20.37
2019-05-05T11:11:56.182Z,20.24
2019-05-05T11:14:25.740Z,20.44
2019-05-05T11:16:58.452Z,20.51
2019-05-05T11:19:28.360Z,20.15
2019-05-05T11:21:58.165Z,19.79
2019-05-05T11:24:28.098Z,19.82
2019-05-05T11:26:57.796Z,20.13
2019-05-05T11:29:27.676Z,20.47
2019-05-05T11:31:58.989Z,19.93
2019-05-05T11:34:29.080Z,20.43
2019-05-05T11:37:00.836Z,20.89
2019-05-05T11:39:33.915Z,21.27
2019-05-05T11:42:04.423Z,21.34
2019-05-05T11:44:34.243Z,21.43
2019-05-05T11:47:03.911Z,21.49
2019-05-05T11:49:33.804Z,20.91
2019-05-05T11:52:06.112Z,20.97
2019-05-05T11:54:36.031Z,20.40
2019-05-05T11:57:05.924Z,20.14
2019-05-05T11:59:35.568Z,20.51
2019-05-05T12:02:05.341Z,20.64
2019-05-05T12:04:34.943Z,19.95
2019-05-05T12:07:04.727Z,19.40
2019-05-05T12:09:35.972Z,19.11
2019-05-05T12:12:05.723Z,18.63
2019-05-05T12:14:36.004Z,18.33
2019-05-05T12:17:05.625Z,18.07
2019-05-05T12:19:38.203Z,17.90
2019-05-05T12:22:07.825Z,17.85
2019-05-05T12:24:39.124Z,17.41
2019-05-05T12:27:11.136Z,17.44
2019-05-05T12:29:44.159Z,17.29
2019-05-05T12:32:14.925Z,17.43
2019-05-05T12:34:44.607Z,17.62
2019-05-05T12:37:15.056Z,17.77
2019-05-05T12:39:45.124Z,17.57
2019-05-05T12:42:14.731Z,17.31
2019-05-05T12:44:46.367Z,17.65
2019-05-05T12:47:20.260Z,17.67
2019-05-05T12:49:49.865Z,17.93
2019-05-05T12:52:19.507Z,18.07
2019-05-05T12:54:49.274Z,18.40
2019-05-05T12:57:19.003Z,18.47
2019-05-05T12:59:50.480Z,18.59
2019-05-05T13:02:20.055Z,18.75
2019-05-05T13:04:49.645Z,18.59
2019-05-05T13:07:19.370Z,18.19
2019-05-05T13:09:48.894Z,17.99
2019-05-05T13:12:18.559Z,18.16
2019-05-05T13:14:48.264Z,18.38
2019-05-05T13:17:17.873Z,18.56
2019-05-05T13:19:50.253Z,18.84
2019-05-05T13:22:33.829Z,18.99
2019-05-05T13:25:19.458Z,18.91
2019-05-05T13:27:49.162Z,19.02
2019-05-05T13:30:19.036Z,18.89
2019-05-05T13:32:48.702Z,18.55
2019-05-05T13:35:18.547Z,18.71
2019-05-05T13:37:48.208Z,18.57
2019-05-05T13:40:18.476Z,18.70
2019-05-05T13:42:48.480Z,18.71
2019-05-05T13:45:35.898Z,18.88
2019-05-05T13:48:05.806Z,18.47
2019-05-05T13:50:39.776Z,18.28
2019-05-05T13:53:09.631Z,17.85
2019-05-05T13:55:39.510Z,17.66
2019-05-05T13:58:09.280Z,18.06
2019-05-05T14:00:39.332Z,18.14
2019-05-05T14:03:09.226Z,18.25
2019-05-05T14:05:39.299Z,18.45
2019-05-05T14:08:09.183Z,18.70
2019-05-05T16:12:39.760Z,16.31
2019-05-05T16:15:29.957Z,16.28
2019-05-05T16:18:17.779Z,16.05
2019-05-05T16:20:55.282Z,15.82
2019-05-05T16:23:31.565Z,16.03
2019-05-05T16:26:03.579Z,16.23
2019-05-05T16:28:34.296Z,16.60
2019-05-05T16:31:05.511Z,15.90
2019-05-05T16:33:35.306Z,15.78
2019-05-05T16:36:06.422Z,15.58
2019-05-05T16:38:36.537Z,15.33
2019-05-05T16:41:06.306Z,15.55
2019-05-05T16:43:37.194Z,15.60
2019-05-05T16:46:08.213Z,15.76
2019-05-05T16:48:37.837Z,15.85
2019-05-05T16:51:09.224Z,15.70
2019-05-05T16:53:39.421Z,15.67
2019-05-05T16:56:16.536Z,15.55
2019-05-05T16:58:46.825Z,15.39
2019-05-05T17:01:17.805Z,14.91
2019-05-05T17:03:47.700Z,15.06
2019-05-05T17:06:18.637Z,15.24
2019-05-05T17:08:48.506Z,15.27
2019-05-05T17:11:18.382Z,15.04
2019-05-05T17:14:08.863Z,14.74
2019-05-05T17:16:44.250Z,14.49
2019-05-05T17:19:18.938Z,14.10
2019-05-05T17:21:53.387Z,13.87
2019-05-05T17:24:24.039Z,13.97
2019-05-05T17:26:55.138Z,13.82
2019-05-05T17:29:25.324Z,13.92
2019-05-05T17:31:55.831Z,13.83
2019-05-05T17:34:25.802Z,13.95
2019-05-05T17:36:56.299Z,13.77
2019-05-05T17:39:27.860Z,13.88
2019-05-05T17:42:14.115Z,13.85
2019-05-05T17:44:54.065Z,13.66
2019-05-05T17:47:37.650Z,13.48
2019-05-05T17:50:18.643Z,13.68
2019-05-05T17:53:04.917Z,13.97
2019-05-05T17:55:35.886Z,14.03
2019-05-05T17:58:05.703Z,13.90
2019-05-05T18:03:12.087Z,13.66
2019-05-05T18:05:59.701Z,13.64
2019-05-05T18:08:37.145Z,13.37
2019-05-05T18:11:13.534Z,13.19
2019-05-05T18:13:44.971Z,13.32
2019-05-05T18:16:16.558Z,13.21
2019-05-05T18:18:47.810Z,12.90
2019-05-05T18:21:19.432Z,12.65
2019-05-05T18:23:49.624Z,12.57
2019-05-05T18:26:19.794Z,12.52
2019-05-05T18:28:50.013Z,12.50
2019-05-05T18:31:19.862Z,12.43
2019-05-05T18:33:49.828Z,12.41
2019-05-05T18:36:19.713Z,12.23
2019-05-05T18:39:08.855Z,12.01
2019-05-05T18:41:46.550Z,11.91
2019-05-05T18:44:16.020Z,11.85
2019-05-05T18:46:47.517Z,11.59
2019-05-05T18:49:17.181Z,11.70
2019-05-05T18:51:50.715Z,11.57
2019-05-05T18:54:20.430Z,11.65
2019-05-05T18:56:51.276Z,11.56
2019-05-05T18:59:20.893Z,11.57
2019-05-05T19:01:52.055Z,11.77
2019-05-05T19:04:31.748Z,11.54
2019-05-05T19:07:08.794Z,11.51
2019-05-05T19:09:50.363Z,11.31
2019-05-05T19:12:10.336Z,11.43
2019-05-05T19:14:40.139Z,11.53
2019-05-05T19:17:09.978Z,11.60
2019-05-05T19:19:41.264Z,11.52
2019-05-05T19:22:17.873Z,11.56
2019-05-05T19:24:47.578Z,11.47
2019-05-05T19:27:17.696Z,11.53
2019-05-05T19:29:47.654Z,11.46
2019-05-05T19:32:17.647Z,11.24
2019-05-05T19:34:47.615Z,11.24
2019-05-05T19:37:18.871Z,11.13
2019-05-05T19:39:48.428Z,11.11
2019-05-05T19:42:17.967Z,10.88
2019-05-05T19:44:47.747Z,11.11
2019-05-05T19:47:21.471Z,11.02
2019-05-05T19:49:56.649Z,11.06
2019-05-05T19:52:26.206Z,10.95
2019-05-05T19:54:56.104Z,10.84
2019-05-05T19:57:25.794Z,10.90
2019-05-05T19:59:58.103Z,10.87
2019-05-05T20:02:27.696Z,10.94
2019-05-05T20:04:57.737Z,10.84
2019-05-05T20:07:27.368Z,10.86
2019-05-05T20:09:57.037Z,10.71
2019-05-05T20:12:26.744Z,10.61
2019-05-05T20:14:56.842Z,10.53
2019-05-05T20:17:34.314Z,10.56
2019-05-05T20:20:06.726Z,10.58
2019-05-05T20:22:36.682Z,10.60
2019-05-05T20:25:10.414Z,10.66
2019-05-05T20:27:39.984Z,10.65
2019-05-05T20:30:10.568Z,10.52
2019-05-05T20:32:41.772Z,10.50
2019-05-05T20:35:24.094Z,10.46
2019-05-05T20:37:57.605Z,10.41
2019-05-05T20:40:31.937Z,10.39
2019-05-05T20:43:04.016Z,10.40
2019-05-05T20:45:34.773Z,10.34
2019-05-05T20:48:04.670Z,10.35
2019-05-05T20:50:34.607Z,10.18
2019-05-05T20:53:04.997Z,10.15
2019-05-05T20:55:34.913Z,10.04
2019-05-05T20:58:04.889Z,10.05
2019-05-05T21:00:34.926Z,9.99
2019-05-05T21:03:05.011Z,10.07
2019-05-05T21:05:35.061Z,10.14
2019-05-05T21:08:05.103Z,10.04
2019-05-05T21:10:34.984Z,10.22
2019-05-05T21:13:04.653Z,10.00
2019-05-05T21:15:34.354Z,9.95
2019-05-05T21:18:05.116Z,9.90
2019-05-05T21:20:36.174Z,9.92
2019-05-05T21:23:08.503Z,9.92
2019-05-05T21:25:41.838Z,9.82
2019-05-05T21:28:11.826Z,9.87
2019-05-05T21:30:41.745Z,9.88
2019-05-05T21:33:12.067Z,9.74
2019-05-05T21:36:04.057Z,9.84
2019-05-05T21:38:32.502Z,9.78
2019-05-05T21:41:04.072Z,9.87
2019-05-05T21:43:33.353Z,9.59
2019-05-05T21:46:04.426Z,9.60
2019-05-05T21:48:34.244Z,9.63
2019-05-05T21:51:07.088Z,9.68
2019-05-05T21:53:39.255Z,9.68
2019-05-05T21:56:16.353Z,9.53
2019-05-05T21:58:47.052Z,8.98
2019-05-05T22:01:18.422Z,9.05
2019-05-05T22:03:48.272Z,9.10
2019-05-05T22:06:17.797Z,8.99
2019-05-05T22:08:47.380Z,8.99
2019-05-05T22:11:17.239Z,8.85
2019-05-05T22:13:46.739Z,9.03
2019-05-05T22:16:16.702Z,8.97
2019-05-05T22:18:46.879Z,8.86
2019-05-05T22:21:21.125Z,8.76
2019-05-05T22:24:08.372Z,8.83
2019-05-05T22:26:37.877Z,8.60
2019-05-05T22:29:07.401Z,8.79
2019-05-05T22:31:38.273Z,8.70
2019-05-05T22:34:08.169Z,8.69
2019-05-05T22:36:37.922Z,8.87
2019-05-05T22:39:16.438Z,8.84
2019-05-05T22:41:44.874Z,8.94
2019-05-05T22:44:14.465Z,8.82
2019-05-05T22:46:44.811Z,8.77
2019-05-05T22:49:14.830Z,8.49
2019-05-05T22:51:44.947Z,8.79
2019-05-05T22:54:15.112Z,8.83
2019-05-05T22:56:45.852Z,8.84
2019-05-05T22:59:15.460Z,8.78
2019-05-05T23:01:45.626Z,8.74
2019-05-05T23:04:16.858Z,8.49
2019-05-05T23:06:48.150Z,8.25
2019-05-05T23:09:17.959Z,8.37
2019-05-05T23:11:47.687Z,8.54
2019-05-05T23:14:29.862Z,8.30
2019-05-05T23:17:04.627Z,8.25
2019-05-05T23:19:36.419Z,8.18
2019-05-05T23:22:10.792Z,8.09
2019-05-05T23:24:43.487Z,8.07
2019-05-05T23:27:14.991Z,7.95
2019-05-05T23:29:44.665Z,8.12
2019-05-05T23:32:15.535Z,8.07
2019-05-05T23:34:47.479Z,8.06
2019-05-05T23:37:17.028Z,7.94
2019-05-05T23:39:46.795Z,8.04
2019-05-05T23:42:16.484Z,7.99
2019-05-05T23:44:45.995Z,8.13
2019-05-05T23:47:15.716Z,8.09
2019-05-05T23:49:45.305Z,7.96
2019-05-05T23:52:16.513Z,8.11
2019-05-05T23:54:46.167Z,7.98
2019-05-05T23:57:15.815Z,7.90
2019-05-05T23:59:45.354Z,7.80
